Time;durP1;ratioP1;P1;durP2;ratioP2;P2;SDS_P1;SDS_P2;PMS_P1;PMS_P2;Temp;Humidity;BMP_temperature;BMP_pressure;BME280_temperature;BME280_humidity;BME280_pressure;Samples;Min_cycle;Max_cycle;Signal;HPM_P1;HPM_P2
2023/07/24 00:00:35;;;;;;;4.68;2.60;;;;;;;;;;4974151;28;20571;-68
2023/07/24 00:03:01;;;;;;;5.72;2.10;;;;;;;;;;4974024;28;20041;-68
2023/07/24 00:05:27;;;;;;;6.15;2.40;;;;;;;;;;4973654;28;20023;-67
2023/07/24 00:07:52;;;;;;;3.95;2.10;;;;;;;;;;4974039;28;20042;-68
2023/07/24 00:10:18;;;;;;;4.35;2.22;;;;;;;;;;4973948;28;20031;-67
2023/07/24 00:12:43;;;;;;;5.47;2.50;;;;;;;;;;4973718;28;20108;-68
2023/07/24 00:15:09;;;;;;;4.85;2.25;;;;;;;;;;4973621;28;20558;-68
2023/07/24 00:17:34;;;;;;;4.18;2.42;;;;;;;;;;4973560;28;20035;-68
2023/07/24 00:20:00;;;;;;;4.78;2.10;;;;;;;;;;4973343;28;20146;-67
2023/07/24 00:22:25;;;;;;;7.10;2.20;;;;;;;;;;4972546;28;20062;-65
2023/07/24 00:24:50;;;;;;;8.07;2.20;;;;;;;;;;4973702;28;20121;-65
2023/07/24 00:27:16;;;;;;;5.35;2.30;;;;;;;;;;4973567;28;20520;-66
2023/07/24 00:29:41;;;;;;;5.10;2.30;;;;;;;;;;4973806;28;20058;-68
2023/07/24 00:32:07;;;;;;;4.75;2.42;;;;;;;;;;4973823;28;20042;-68
2023/07/24 00:34:33;;;;;;;4.32;2.17;;;;;;;;;;4973518;28;20326;-68
2023/07/24 00:36:59;;;;;;;5.75;2.50;;;;;;;;;;4973659;28;20034;-69
2023/07/24 00:39:24;;;;;;;5.68;2.28;;;;;;;;;;4973904;28;20034;-68
2023/07/24 00:41:49;;;;;;;5.28;2.33;;;;;;;;;;4973460;28;20027;-65
2023/07/24 00:44:18;;;;;;;4.22;2.50;;;;;;;;;;4973676;28;20027;-66
2023/07/24 00:46:44;;;;;;;3.95;2.35;;;;;;;;;;4973237;28;20051;-67
2023/07/24 00:49:09;;;;;;;3.88;2.22;;;;;;;;;;4973626;28;20117;-67
2023/07/24 00:51:34;;;;;;;3.97;2.30;;;;;;;;;;4972325;28;20023;-68
2023/07/24 00:54:02;;;;;;;4.38;2.45;;;;;;;;;;4973592;28;20472;-66
2023/07/24 00:56:28;;;;;;;4.65;2.40;;;;;;;;;;4973421;28;20081;-68
2023/07/24 00:58:55;;;;;;;3.67;2.30;;;;;;;;;;4973565;28;20071;-66
2023/07/24 01:01:21;;;;;;;2.90;2.15;;;;;;;;;;4973601;28;20027;-68
2023/07/24 01:03:46;;;;;;;4.88;2.40;;;;;;;;;;4973487;28;20118;-66
2023/07/24 01:06:12;;;;;;;4.88;2.13;;;;;;;;;;4973471;28;20107;-67
2023/07/24 01:08:37;;;;;;;5.82;2.17;;;;;;;;;;4973564;28;20023;-65
2023/07/24 01:11:12;;;;;;;3.08;1.98;;;;;;;;;;4973160;28;20026;-68
2023/07/24 01:13:43;;;;;;;3.80;2.40;;;;;;;;;;4973441;28;20018;-68
2023/07/24 01:16:18;;;;;;;;;;;;;;;;;;4975879;28;20030;-65
2023/07/24 01:18:45;;;;;;;3.65;2.28;;;;;;;;;;4976962;28;19921;-68
2023/07/24 01:21:13;;;;;;;4.20;2.30;;;;;;;;;;4976951;28;20050;-68
2023/07/24 01:23:57;;;;;;;3.35;2.10;;;;;;;;;;4976782;28;20026;-67
2023/07/24 01:26:25;;;;;;;3.58;2.20;;;;;;;;;;4976552;28;20388;-67
2023/07/24 01:28:51;;;;;;;5.22;2.50;;;;;;;;;;4976793;28;20114;-68
2023/07/24 01:31:17;;;;;;;4.35;2.15;;;;;;;;;;4976826;28;20098;-66
2023/07/24 01:33:44;;;;;;;4.95;2.13;;;;;;;;;;4976608;28;20019;-67
2023/07/24 01:36:09;;;;;;;3.97;2.45;;;;;;;;;;4976508;28;20475;-64
2023/07/24 01:38:36;;;;;;;7.47;2.30;;;;;;;;;;4976529;28;20088;-69
2023/07/24 01:41:02;;;;;;;5.10;2.25;;;;;;;;;;4976516;28;20059;-69
2023/07/24 01:43:29;;;;;;;4.47;2.53;;;;;;;;;;4976391;28;20043;-66
2023/07/24 01:45:56;;;;;;;5.47;2.47;;;;;;;;;;4976132;28;20441;-69
2023/07/24 01:48:21;;;;;;;5.68;2.38;;;;;;;;;;4976273;28;20043;-69
2023/07/24 01:50:47;;;;;;;5.18;2.60;;;;;;;;;;4976368;28;20511;-67
2023/07/24 01:53:13;;;;;;;3.35;2.30;;;;;;;;;;4975948;28;20022;-68
2023/07/24 01:55:38;;;;;;;4.63;2.55;;;;;;;;;;4976080;28;20043;-66
2023/07/24 01:58:04;;;;;;;5.72;2.70;;;;;;;;;;4976176;28;20481;-69
2023/07/24 02:00:29;;;;;;;4.93;2.50;;;;;;;;;;4976104;28;20030;-68
2023/07/24 02:02:55;;;;;;;4.95;2.90;;;;;;;;;;4975972;28;20031;-67
2023/07/24 02:05:20;;;;;;;5.10;2.50;;;;;;;;;;4976023;28;20109;-67
2023/07/24 02:07:45;;;;;;;6.28;2.90;;;;;;;;;;4975803;28;20113;-66
2023/07/24 02:10:11;;;;;;;4.78;2.75;;;;;;;;;;4976025;28;20031;-65
2023/07/24 02:12:36;;;;;;;4.82;2.58;;;;;;;;;;4975894;28;20046;-64
2023/07/24 02:15:02;;;;;;;7.60;2.88;;;;;;;;;;4975815;28;20031;-67
2023/07/24 02:17:27;;;;;;;4.60;2.60;;;;;;;;;;4975873;28;20031;-68
2023/07/24 02:19:53;;;;;;;8.18;3.03;;;;;;;;;;4975817;28;20383;-66
2023/07/24 02:22:18;;;;;;;5.00;3.00;;;;;;;;;;4975505;28;20027;-67
2023/07/24 02:24:44;;;;;;;5.10;2.85;;;;;;;;;;4975624;28;20058;-63
2023/07/24 02:27:13;;;;;;;5.80;2.70;;;;;;;;;;4974977;28;20027;-63
2023/07/24 02:29:39;;;;;;;5.53;2.90;;;;;;;;;;4975656;28;20506;-68
2023/07/24 02:32:05;;;;;;;4.78;2.28;;;;;;;;;;4975622;28;20117;-64
2023/07/24 02:34:30;;;;;;;5.00;2.70;;;;;;;;;;4975479;28;20026;-64
2023/07/24 02:36:55;;;;;;;5.05;2.50;;;;;;;;;;4975125;28;20042;-68
2023/07/24 02:39:21;;;;;;;6.50;2.67;;;;;;;;;;4975581;28;20041;-64
2023/07/24 02:41:49;;;;;;;8.32;3.28;;;;;;;;;;4975413;28;20034;-66
2023/07/24 02:44:15;;;;;;;6.40;2.65;;;;;;;;;;4975324;28;20027;-67
2023/07/24 02:46:40;;;;;;;4.85;2.38;;;;;;;;;;4974893;28;20546;-65
2023/07/24 02:49:06;;;;;;;4.50;2.53;;;;;;;;;;4975320;28;20126;-67
2023/07/24 02:51:31;;;;;;;4.85;2.30;;;;;;;;;;4975084;28;20029;-69
2023/07/24 02:53:56;;;;;;;4.53;2.38;;;;;;;;;;4975077;28;20034;-65
2023/07/24 02:56:22;;;;;;;5.97;2.67;;;;;;;;;;4975025;28;20030;-65
2023/07/24 02:58:47;;;;;;;4.93;2.25;;;;;;;;;;4975238;28;20486;-67
2023/07/24 03:01:14;;;;;;;7.57;2.17;;;;;;;;;;4975044;28;20073;-66
2023/07/24 03:03:40;;;;;;;5.00;2.13;;;;;;;;;;4974961;28;20041;-64
2023/07/24 03:06:05;;;;;;;5.95;2.50;;;;;;;;;;4974550;28;20065;-64
2023/07/24 03:08:31;;;;;;;7.55;2.75;;;;;;;;;;4974778;28;20019;-67
2023/07/24 03:10:57;;;;;;;5.85;2.50;;;;;;;;;;4974812;28;20019;-68
2023/07/24 03:13:22;;;;;;;5.05;2.40;;;;;;;;;;4974738;28;20518;-67
2023/07/24 03:15:52;;;;;;;4.05;2.58;;;;;;;;;;4974675;28;20066;-64
2023/07/24 03:18:18;;;;;;;4.95;2.20;;;;;;;;;;4974547;28;20030;-67
2023/07/24 03:20:43;;;;;;;3.85;2.35;;;;;;;;;;4974481;28;20042;-64
2023/07/24 03:23:09;;;;;;;5.28;2.40;;;;;;;;;;4974294;28;20081;-67
2023/07/24 03:25:35;;;;;;;4.63;2.05;;;;;;;;;;4974322;28;20035;-66
2023/07/24 03:28:01;;;;;;;3.97;2.30;;;;;;;;;;4974548;28;20066;-67
2023/07/24 03:30:26;;;;;;;4.15;2.10;;;;;;;;;;4974481;28;20059;-67
2023/07/24 03:32:51;;;;;;;5.75;2.30;;;;;;;;;;4974424;28;20034;-65
2023/07/24 03:35:17;;;;;;;5.45;2.70;;;;;;;;;;4974198;28;20026;-66
2023/07/24 03:37:42;;;;;;;4.35;2.50;;;;;;;;;;4974471;28;20027;-66
2023/07/24 03:40:08;;;;;;;3.83;2.08;;;;;;;;;;4973639;28;20389;-68
2023/07/24 03:42:34;;;;;;;3.30;2.15;;;;;;;;;;4974426;28;20030;-67
2023/07/24 03:44:59;;;;;;;5.90;2.60;;;;;;;;;;4974233;28;20122;-67
2023/07/24 03:47:25;;;;;;;7.75;2.90;;;;;;;;;;4974084;28;20097;-66
2023/07/24 03:49:50;;;;;;;4.53;2.50;;;;;;;;;;4973950;28;20023;-67
2023/07/24 03:52:16;;;;;;;4.47;2.53;;;;;;;;;;4972785;28;20038;-67
2023/07/24 03:54:42;;;;;;;4.53;2.78;;;;;;;;;;4974125;28;20027;-67
2023/07/24 03:57:07;;;;;;;5.10;2.70;;;;;;;;;;4974099;28;20126;-66
2023/07/24 03:59:33;;;;;;;3.80;2.60;;;;;;;;;;4974110;28;20480;-67
2023/07/24 04:01:59;;;;;;;4.85;2.70;;;;;;;;;;4974066;28;20039;-68
2023/07/24 04:04:24;;;;;;;3.42;2.38;;;;;;;;;;4973801;28;20400;-65
2023/07/24 04:06:50;;;;;;;4.20;2.50;;;;;;;;;;4974098;28;20071;-67
2023/07/24 04:09:15;;;;;;;5.10;2.92;;;;;;;;;;4973987;28;20472;-68
2023/07/24 04:11:42;;;;;;;3.60;2.40;;;;;;;;;;4973919;28;20065;-67
2023/07/24 04:14:07;;;;;;;4.68;2.75;;;;;;;;;;4973869;28;20027;-68
2023/07/24 04:16:33;;;;;;;4.70;2.63;;;;;;;;;;4973797;28;20089;-67
2023/07/24 04:18:58;;;;;;;5.13;2.88;;;;;;;;;;4973595;28;20058;-68
2023/07/24 04:21:24;;;;;;;4.88;2.78;;;;;;;;;;4973876;28;20385;-65
2023/07/24 04:23:49;;;;;;;6.07;2.67;;;;;;;;;;4973625;28;20019;-63
2023/07/24 04:26:14;;;;;;;12.77;3.13;;;;;;;;;;4973661;28;20026;-64
2023/07/24 04:28:40;;;;;;;6.82;2.60;;;;;;;;;;4973866;28;20460;-63
2023/07/24 04:31:05;;;;;;;5.50;2.55;;;;;;;;;;4973722;28;20065;-65
2023/07/24 04:33:31;;;;;;;5.72;2.97;;;;;;;;;;4973487;28;20018;-64
2023/07/24 04:35:56;;;;;;;4.70;2.28;;;;;;;;;;4973678;28;20053;-64
2023/07/24 04:38:22;;;;;;;4.05;2.50;;;;;;;;;;4973734;28;20365;-64
2023/07/24 04:40:47;;;;;;;4.47;2.47;;;;;;;;;;4973808;28;20035;-64
2023/07/24 04:43:13;;;;;;;4.97;2.45;;;;;;;;;;4973412;28;20154;-63
2023/07/24 04:45:38;;;;;;;4.45;2.70;;;;;;;;;;4973479;28;20212;-64
2023/07/24 04:48:04;;;;;;;6.78;2.50;;;;;;;;;;4973299;28;20121;-64
2023/07/24 04:50:30;;;;;;;5.63;2.42;;;;;;;;;;4974684;28;20043;-65
2023/07/24 04:52:55;;;;;;;4.85;2.35;;;;;;;;;;4977312;28;20489;-68
2023/07/24 04:55:21;;;;;;;10.13;2.50;;;;;;;;;;4977319;28;20034;-64
2023/07/24 04:57:47;;;;;;;4.30;2.58;;;;;;;;;;4977258;28;20023;-64
2023/07/24 05:00:13;;;;;;;8.20;2.53;;;;;;;;;;4977165;28;20035;-64
2023/07/24 05:02:38;;;;;;;4.05;2.60;;;;;;;;;;4976973;28;20030;-64
2023/07/24 05:05:04;;;;;;;4.40;2.40;;;;;;;;;;4977055;28;20098;-64
2023/07/24 05:07:30;;;;;;;3.88;2.60;;;;;;;;;;4977110;28;20031;-64
2023/07/24 05:09:55;;;;;;;5.18;2.65;;;;;;;;;;4977022;28;20054;-64
2023/07/24 05:12:20;;;;;;;4.22;2.30;;;;;;;;;;4976854;28;20118;-64
2023/07/24 05:14:46;;;;;;;3.97;2.47;;;;;;;;;;4976997;28;20031;-64
2023/07/24 05:17:11;;;;;;;5.72;2.95;;;;;;;;;;4976589;28;20031;-64
2023/07/24 05:19:37;;;;;;;5.43;2.60;;;;;;;;;;4976821;28;20117;-63
2023/07/24 05:22:02;;;;;;;4.00;2.38;;;;;;;;;;4976928;28;20391;-63
2023/07/24 05:24:28;;;;;;;6.95;2.53;;;;;;;;;;4976737;28;20034;-64
2023/07/24 05:26:53;;;;;;;6.13;2.65;;;;;;;;;;4976599;28;20038;-64
2023/07/24 05:29:18;;;;;;;6.13;2.70;;;;;;;;;;4976694;28;20023;-63
2023/07/24 05:31:44;;;;;;;6.00;2.55;;;;;;;;;;4976506;28;20030;-66
2023/07/24 05:34:09;;;;;;;5.25;2.88;;;;;;;;;;4976554;28;20440;-63
2023/07/24 05:36:35;;;;;;;10.70;2.70;;;;;;;;;;4976535;28;20065;-64
2023/07/24 05:39:00;;;;;;;7.20;2.47;;;;;;;;;;4976553;28;20106;-64
2023/07/24 05:41:26;;;;;;;4.70;2.40;;;;;;;;;;4976531;28;20034;-64
2023/07/24 05:43:51;;;;;;;6.32;2.60;;;;;;;;;;4976335;28;20038;-64
2023/07/24 05:46:17;;;;;;;8.07;2.58;;;;;;;;;;4975886;28;20093;-66
2023/07/24 05:48:42;;;;;;;3.95;2.30;;;;;;;;;;4976262;28;20031;-63
2023/07/24 05:51:08;;;;;;;6.00;2.85;;;;;;;;;;4976390;28;20103;-64
2023/07/24 05:53:33;;;;;;;10.73;2.58;;;;;;;;;;4976170;28;20035;-64
2023/07/24 05:56:00;;;;;;;4.60;2.50;;;;;;;;;;4976296;28;20031;-63
2023/07/24 05:58:26;;;;;;;4.63;2.50;;;;;;;;;;4976227;28;20027;-64
2023/07/24 06:00:51;;;;;;;3.35;2.35;;;;;;;;;;4976060;28;20015;-64
2023/07/24 06:03:17;;;;;;;4.88;2.30;;;;;;;;;;4975250;28;20037;-64
2023/07/24 06:05:42;;;;;;;6.43;2.38;;;;;;;;;;4976130;28;20105;-64
2023/07/24 06:08:11;;;;;;;3.92;2.15;;;;;;;;;;4975972;28;20081;-64
2023/07/24 06:10:37;;;;;;;5.05;2.08;;;;;;;;;;4976145;28;20027;-66
2023/07/24 06:13:02;;;;;;;3.50;2.25;;;;;;;;;;4975743;28;20094;-64
2023/07/24 06:15:28;;;;;;;3.55;2.35;;;;;;;;;;4975701;28;20495;-64
2023/07/24 06:17:53;;;;;;;4.43;1.92;;;;;;;;;;4975883;28;20045;-63
2023/07/24 06:20:19;;;;;;;3.03;1.70;;;;;;;;;;4975816;28;20380;-64
2023/07/24 06:22:44;;;;;;;4.38;2.03;;;;;;;;;;4975766;28;20026;-63
2023/07/24 06:25:10;;;;;;;4.75;1.80;;;;;;;;;;4975428;28;20113;-64
2023/07/24 06:27:35;;;;;;;3.40;1.70;;;;;;;;;;4975563;28;20035;-65
2023/07/24 06:30:01;;;;;;;2.17;1.70;;;;;;;;;;4975439;28;20094;-64
2023/07/24 06:32:26;;;;;;;3.22;1.85;;;;;;;;;;4975600;28;20535;-64
2023/07/24 06:34:52;;;;;;;2.72;1.52;;;;;;;;;;4974564;28;20026;-64
2023/07/24 06:37:17;;;;;;;3.45;1.70;;;;;;;;;;4975363;28;20037;-64
2023/07/24 06:39:43;;;;;;;2.53;1.70;;;;;;;;;;4975229;28;20031;-64
2023/07/24 06:42:09;;;;;;;2.47;1.50;;;;;;;;;;4975228;28;20031;-64
2023/07/24 06:44:34;;;;;;;2.38;1.40;;;;;;;;;;4972522;28;20054;-67
2023/07/24 06:46:59;;;;;;;5.07;1.38;;;;;;;;;;4971376;28;20043;-64
2023/07/24 06:49:25;;;;;;;2.63;1.50;;;;;;;;;;4974861;28;20027;-64
2023/07/24 06:51:50;;;;;;;3.88;1.70;;;;;;;;;;4974648;28;20480;-64
2023/07/24 06:54:16;;;;;;;5.57;1.60;;;;;;;;;;4974631;28;20153;-64
2023/07/24 06:56:41;;;;;;;2.17;1.38;;;;;;;;;;4974189;28;20034;-63
2023/07/24 06:59:06;;;;;;;2.50;1.55;;;;;;;;;;4974407;28;20034;-63
2023/07/24 07:01:32;;;;;;;2.85;1.70;;;;;;;;;;4974870;28;20038;-67
2023/07/24 07:03:57;;;;;;;3.80;1.90;;;;;;;;;;4974497;28;20030;-64
2023/07/24 07:06:23;;;;;;;3.45;1.65;;;;;;;;;;4974681;28;20026;-64
2023/07/24 07:08:48;;;;;;;3.38;1.63;;;;;;;;;;4974564;28;20023;-64
2023/07/24 07:11:13;;;;;;;3.28;1.80;;;;;;;;;;4974579;28;20026;-64
2023/07/24 07:13:39;;;;;;;2.42;1.55;;;;;;;;;;4974302;28;20041;-63
2023/07/24 07:16:04;;;;;;;2.67;1.80;;;;;;;;;;4974488;28;20309;-63
2023/07/24 07:18:30;;;;;;;4.53;2.00;;;;;;;;;;4974315;28;20026;-66
2023/07/24 07:20:56;;;;;;;6.57;1.98;;;;;;;;;;4974300;28;20057;-63
2023/07/24 07:23:22;;;;;;;4.68;2.05;;;;;;;;;;4974192;28;20023;-63
2023/07/24 07:25:47;;;;;;;3.10;2.13;;;;;;;;;;4974034;28;20054;-63
2023/07/24 07:28:16;;;;;;;5.72;2.10;;;;;;;;;;4974013;28;20019;-64
2023/07/24 07:30:43;;;;;;;2.95;1.98;;;;;;;;;;4974230;28;20058;-63
2023/07/24 07:33:09;;;;;;;6.32;2.53;;;;;;;;;;4974170;28;20117;-63
2023/07/24 07:35:35;;;;;;;4.47;2.25;;;;;;;;;;4974136;28;20107;-63
2023/07/24 07:38:01;;;;;;;4.03;2.38;;;;;;;;;;4974098;28;20539;-63
2023/07/24 07:40:27;;;;;;;5.65;2.78;;;;;;;;;;4973978;28;20062;-63
2023/07/24 07:42:53;;;;;;;3.10;2.15;;;;;;;;;;4973701;28;20035;-63
2023/07/24 07:45:19;;;;;;;4.25;2.20;;;;;;;;;;4973925;28;20030;-63
2023/07/24 07:47:44;;;;;;;3.97;2.60;;;;;;;;;;4973680;28;20127;-63
2023/07/24 07:50:10;;;;;;;3.85;2.15;;;;;;;;;;4973949;28;20019;-63
2023/07/24 07:52:36;;;;;;;3.83;2.42;;;;;;;;;;4973853;28;20057;-64
2023/07/24 07:55:01;;;;;;;5.93;2.30;;;;;;;;;;4973603;28;20041;-67
2023/07/24 07:57:27;;;;;;;4.55;2.15;;;;;;;;;;4973656;28;20019;-63
2023/07/24 07:59:52;;;;;;;4.15;2.60;;;;;;;;;;4974103;28;20050;-63
2023/07/24 08:02:18;;;;;;;3.28;2.10;;;;;;;;;;4973882;28;20089;-63
2023/07/24 08:04:43;;;;;;;5.47;2.75;;;;;;;;;;4973776;28;20507;-63
2023/07/24 08:07:09;;;;;;;3.63;2.63;;;;;;;;;;4973766;28;20512;-63
2023/07/24 08:09:35;;;;;;;4.03;2.33;;;;;;;;;;4973705;28;20033;-63
2023/07/24 08:12:01;;;;;;;4.75;3.00;;;;;;;;;;4973464;28;20026;-64
2023/07/24 08:14:26;;;;;;;3.90;2.53;;;;;;;;;;4973599;28;20030;-63
2023/07/24 08:16:53;;;;;;;3.72;2.97;;;;;;;;;;4973636;28;20069;-63
2023/07/24 08:19:18;;;;;;;3.78;2.97;;;;;;;;;;4973744;28;20054;-63
2023/07/24 08:21:44;;;;;;;5.82;2.80;;;;;;;;;;4973598;28;20055;-63
2023/07/24 08:24:10;;;;;;;4.00;3.10;;;;;;;;;;4973484;28;20035;-63
2023/07/24 08:26:35;;;;;;;5.18;3.20;;;;;;;;;;4975945;28;20114;-63
2023/07/24 08:29:00;;;;;;;6.38;3.38;;;;;;;;;;4977633;28;20038;-64
2023/07/24 08:31:26;;;;;;;3.63;2.63;;;;;;;;;;4977664;28;20030;-64
2023/07/24 08:33:51;;;;;;;5.68;3.30;;;;;;;;;;4977557;28;20031;-64
2023/07/24 08:36:17;;;;;;;5.07;2.85;;;;;;;;;;4977374;28;20034;-64
2023/07/24 08:38:42;;;;;;;4.28;3.00;;;;;;;;;;4977347;28;20031;-68
2023/07/24 08:41:09;;;;;;;3.88;2.90;;;;;;;;;;4977124;28;20396;-64
2023/07/24 08:43:36;;;;;;;4.10;2.90;;;;;;;;;;4977304;28;20360;-64
2023/07/24 08:46:02;;;;;;;4.70;3.08;;;;;;;;;;4977104;28;20042;-64
2023/07/24 08:48:35;;;;;;;4.18;3.20;;;;;;;;;;4977125;28;20026;-64
2023/07/24 08:51:02;;;;;;;3.55;2.50;;;;;;;;;;4977177;28;20114;-64
2023/07/24 08:53:30;;;;;;;4.57;2.90;;;;;;;;;;4977125;28;20038;-68
2023/07/24 08:55:56;;;;;;;4.63;2.70;;;;;;;;;;4977305;28;20022;-64
2023/07/24 08:58:22;;;;;;;6.45;2.90;;;;;;;;;;4977118;28;20476;-64
2023/07/24 09:00:47;;;;;;;3.75;3.13;;;;;;;;;;4977045;28;20125;-64
2023/07/24 09:03:13;;;;;;;3.58;2.78;;;;;;;;;;4976971;28;20504;-64
2023/07/24 09:05:38;;;;;;;6.57;3.05;;;;;;;;;;4977028;28;20019;-64
2023/07/24 09:08:04;;;;;;;3.50;2.80;;;;;;;;;;4976769;28;20065;-64
2023/07/24 09:10:29;;;;;;;4.20;2.60;;;;;;;;;;4976797;28;20034;-64
2023/07/24 09:12:55;;;;;;;2.85;2.40;;;;;;;;;;4976822;28;20061;-64
2023/07/24 09:15:21;;;;;;;2.75;2.20;;;;;;;;;;4976839;28;20030;-64
2023/07/24 09:17:51;;;;;;;3.45;2.17;;;;;;;;;;4976833;28;20380;-65
2023/07/24 09:20:17;;;;;;;4.30;2.15;;;;;;;;;;4976612;28;20040;-64
2023/07/24 09:22:53;;;;;;;3.50;2.00;;;;;;;;;;4976266;28;20027;-64
2023/07/24 09:25:29;;;;;;;4.63;2.20;;;;;;;;;;4975990;28;20042;-64
2023/07/24 09:27:55;;;;;;;3.80;2.40;;;;;;;;;;4974885;28;20038;-64
2023/07/24 09:30:23;;;;;;;4.05;2.15;;;;;;;;;;4976514;28;20023;-66
2023/07/24 09:32:52;;;;;;;3.13;2.20;;;;;;;;;;4976379;28;20400;-65
2023/07/24 09:35:18;;;;;;;3.25;2.53;;;;;;;;;;4976465;28;20026;-67
2023/07/24 09:37:45;;;;;;;3.22;2.42;;;;;;;;;;4974978;28;20484;-64
2023/07/24 09:40:11;;;;;;;5.72;2.40;;;;;;;;;;4976364;28;20035;-64
2023/07/24 09:42:38;;;;;;;3.80;2.30;;;;;;;;;;4976047;28;20026;-64
2023/07/24 09:45:04;;;;;;;4.00;2.20;;;;;;;;;;4975979;28;20114;-64
2023/07/24 09:47:33;;;;;;;4.18;2.50;;;;;;;;;;4975990;28;20408;-64
2023/07/24 09:49:59;;;;;;;4.33;2.63;;;;;;;;;;4975942;28;20122;-64
2023/07/24 09:52:27;;;;;;;3.80;2.45;;;;;;;;;;4975872;28;20106;-64
2023/07/24 09:54:58;;;;;;;3.22;2.40;;;;;;;;;;4975735;28;20054;-64
2023/07/24 09:57:24;;;;;;;4.50;2.28;;;;;;;;;;4975940;28;20037;-64
2023/07/24 09:59:52;;;;;;;3.35;2.22;;;;;;;;;;4975995;28;20356;-64
2023/07/24 10:02:18;;;;;;;3.20;2.47;;;;;;;;;;4975887;28;20033;-64
2023/07/24 10:04:44;;;;;;;3.33;2.50;;;;;;;;;;4975725;28;20027;-64
2023/07/24 10:07:10;;;;;;;3.42;2.10;;;;;;;;;;4975557;28;20396;-64
2023/07/24 10:09:36;;;;;;;4.13;1.90;;;;;;;;;;4975824;28;20034;-64
2023/07/24 10:12:02;;;;;;;4.22;2.20;;;;;;;;;;4975713;28;20025;-64
2023/07/24 10:14:29;;;;;;;3.05;2.20;;;;;;;;;;4975647;28;20038;-65
2023/07/24 10:16:56;;;;;;;5.22;2.30;;;;;;;;;;4975524;28;20074;-65
2023/07/24 10:19:21;;;;;;;5.40;2.25;;;;;;;;;;4975672;28;20034;-64
2023/07/24 10:21:48;;;;;;;4.60;2.00;;;;;;;;;;4975447;28;20034;-64
2023/07/24 10:24:15;;;;;;;2.58;1.80;;;;;;;;;;4975547;28;20077;-64
2023/07/24 10:26:40;;;;;;;2.65;1.95;;;;;;;;;;4975209;28;20558;-65
2023/07/24 10:29:06;;;;;;;2.67;1.92;;;;;;;;;;4975382;28;20063;-65
2023/07/24 10:31:32;;;;;;;3.22;2.00;;;;;;;;;;4975580;28;20031;-65
2023/07/24 10:34:04;;;;;;;2.92;2.10;;;;;;;;;;4975390;28;20023;-64
2023/07/24 10:36:34;;;;;;;2.67;2.00;;;;;;;;;;4974916;28;20037;-64
2023/07/24 10:39:01;;;;;;;3.13;1.93;;;;;;;;;;4974999;28;20037;-68
2023/07/24 10:41:36;;;;;;;5.88;1.88;;;;;;;;;;4975123;28;20027;-65
2023/07/24 10:44:03;;;;;;;5.82;1.98;;;;;;;;;;4975027;28;20333;-67
2023/07/24 10:46:40;;;;;;;3.90;2.00;;;;;;;;;;4973406;28;20507;-68
2023/07/24 10:49:07;;;;;;;4.22;1.80;;;;;;;;;;4974615;28;20058;-68
2023/07/24 10:51:34;;;;;;;4.78;2.00;;;;;;;;;;4974889;28;20364;-67
2023/07/24 10:54:00;;;;;;;2.65;1.80;;;;;;;;;;4974873;28;20065;-65
2023/07/24 10:56:25;;;;;;;3.35;1.80;;;;;;;;;;4974726;28;20499;-67
2023/07/24 10:58:50;;;;;;;2.72;1.80;;;;;;;;;;4974710;28;20065;-67
2023/07/24 11:01:17;;;;;;;3.53;1.80;;;;;;;;;;4974887;28;20025;-68
2023/07/24 11:03:43;;;;;;;7.32;2.00;;;;;;;;;;4974756;28;20431;-67
2023/07/24 11:06:17;;;;;;;5.55;1.95;;;;;;;;;;4973218;28;20023;-66
2023/07/24 11:08:56;;;;;;;3.75;1.80;;;;;;;;;;4966869;28;20476;-65
2023/07/24 11:11:22;;;;;;;3.65;1.63;;;;;;;;;;4974566;28;20376;-67
2023/07/24 11:13:47;;;;;;;4.57;1.80;;;;;;;;;;4974534;28;20030;-68
2023/07/24 11:16:13;;;;;;;3.50;1.98;;;;;;;;;;4974368;28;20027;-68
2023/07/24 11:18:49;;;;;;;4.72;1.60;;;;;;;;;;4972789;28;20121;-67
2023/07/24 11:21:18;;;;;;;3.35;2.03;;;;;;;;;;4957393;28;20039;-68
2023/07/24 11:23:51;;;;;;;3.17;1.77;;;;;;;;;;4974322;28;20054;-68
2023/07/24 11:26:21;;;;;;;2.13;1.42;;;;;;;;;;4974168;28;20027;-68
2023/07/24 11:28:46;;;;;;;9.13;1.80;;;;;;;;;;4974282;28;20033;-68
2023/07/24 11:31:12;;;;;;;3.08;1.95;;;;;;;;;;4974276;28;20027;-67
2023/07/24 11:33:39;;;;;;;2.53;1.52;;;;;;;;;;4973955;28;20030;-67
2023/07/24 11:36:05;;;;;;;2.67;1.40;;;;;;;;;;4974183;28;20030;-67
2023/07/24 11:38:30;;;;;;;4.82;1.35;;;;;;;;;;4973935;28;20038;-68
2023/07/24 11:40:56;;;;;;;2.85;1.73;;;;;;;;;;4960101;28;20027;-68
2023/07/24 11:43:23;;;;;;;3.47;1.50;;;;;;;;;;4954797;28;20461;-69
2023/07/24 11:45:54;;;;;;;3.50;1.77;;;;;;;;;;4954818;28;20047;-67
2023/07/24 11:48:24;;;;;;;5.13;2.28;;;;;;;;;;4960076;28;20102;-69
2023/07/24 11:50:56;;;;;;;3.40;2.05;;;;;;;;;;4973809;28;20037;-68
2023/07/24 11:53:30;;;;;;;2.45;1.77;;;;;;;;;;4973824;28;20034;-68
2023/07/24 11:55:58;;;;;;;4.75;2.25;;;;;;;;;;4973842;28;20034;-68
2023/07/24 11:58:27;;;;;;;3.28;1.95;;;;;;;;;;4973920;28;20027;-68
2023/07/24 12:00:53;;;;;;;3.25;2.28;;;;;;;;;;4972959;28;20026;-68
2023/07/24 12:03:21;;;;;;;5.55;2.13;;;;;;;;;;4973552;28;20026;-66
2023/07/24 12:05:46;;;;;;;5.13;2.00;;;;;;;;;;4973664;28;20035;-65
2023/07/24 12:08:14;;;;;;;3.78;2.00;;;;;;;;;;4973653;28;20042;-66
2023/07/24 12:10:40;;;;;;;4.95;1.95;;;;;;;;;;4973739;28;20626;-67
2023/07/24 12:13:06;;;;;;;3.38;1.58;;;;;;;;;;4973760;28;20538;-68
2023/07/24 12:15:34;;;;;;;3.13;1.67;;;;;;;;;;4973569;28;20081;-65
2023/07/24 12:18:00;;;;;;;4.07;1.63;;;;;;;;;;4973405;28;20034;-69
2023/07/24 12:20:26;;;;;;;3.75;1.80;;;;;;;;;;4973628;28;20031;-67
2023/07/24 12:22:52;;;;;;;3.60;1.98;;;;;;;;;;4973445;28;20049;-65
2023/07/24 12:25:17;;;;;;;7.00;1.80;;;;;;;;;;4973464;28;20031;-68
2023/07/24 12:27:43;;;;;;;2.53;1.38;;;;;;;;;;4973654;28;20383;-68
2023/07/24 12:30:08;;;;;;;4.82;1.85;;;;;;;;;;4973468;28;20453;-67
2023/07/24 12:32:34;;;;;;;7.07;1.98;;;;;;;;;;4973296;28;20046;-68
2023/07/24 12:35:00;;;;;;;3.78;2.22;;;;;;;;;;4973295;28;20381;-69
2023/07/24 12:37:26;;;;;;;3.60;1.92;;;;;;;;;;4973501;28;20034;-68
2023/07/24 12:39:51;;;;;;;3.85;1.95;;;;;;;;;;4973379;28;20019;-68
2023/07/24 12:42:17;;;;;;;3.55;1.90;;;;;;;;;;4973392;28;20059;-67
2023/07/24 12:44:43;;;;;;;2.92;1.80;;;;;;;;;;4973423;28;20027;-65
2023/07/24 12:47:10;;;;;;;3.00;2.03;;;;;;;;;;4972752;28;20058;-65
2023/07/24 12:49:36;;;;;;;5.55;2.03;;;;;;;;;;4973206;28;20041;-66
2023/07/24 12:52:02;;;;;;;5.78;2.17;;;;;;;;;;4973442;28;20031;-65
2023/07/24 12:54:27;;;;;;;14.52;2.60;;;;;;;;;;4973350;28;20027;-64
2023/07/24 12:56:53;;;;;;;6.97;3.10;;;;;;;;;;4972984;28;20037;-64
2023/07/24 12:59:18;;;;;;;8.63;2.75;;;;;;;;;;4973444;28;20023;-65
2023/07/24 13:01:44;;;;;;;9.40;3.10;;;;;;;;;;4973127;28;20031;-65
2023/07/24 13:04:10;;;;;;;11.57;3.50;;;;;;;;;;4973347;28;20026;-65
2023/07/24 13:06:35;;;;;;;7.78;3.40;;;;;;;;;;4973244;28;20022;-69
2023/07/24 13:09:01;;;;;;;6.63;2.58;;;;;;;;;;4973278;28;20392;-68
2023/07/24 13:11:28;;;;;;;7.10;2.97;;;;;;;;;;4974324;28;20026;-65
2023/07/24 13:13:54;;;;;;;10.80;3.33;;;;;;;;;;4976908;28;20070;-66
2023/07/24 13:16:19;;;;;;;10.30;3.10;;;;;;;;;;4976669;28;20034;-69
2023/07/24 13:18:45;;;;;;;7.78;3.45;;;;;;;;;;4976871;28;20337;-67
2023/07/24 13:21:10;;;;;;;12.65;3.60;;;;;;;;;;4976665;28;20515;-65
2023/07/24 13:23:36;;;;;;;11.55;3.42;;;;;;;;;;4976784;28;20198;-66
2023/07/24 13:26:01;;;;;;;9.93;3.50;;;;;;;;;;4976426;28;20089;-69
2023/07/24 13:28:27;;;;;;;12.20;3.55;;;;;;;;;;4976648;28;20026;-69
2023/07/24 13:30:53;;;;;;;9.50;3.63;;;;;;;;;;4976276;28;20027;-66
2023/07/24 13:33:19;;;;;;;7.95;3.30;;;;;;;;;;4976623;28;20084;-66
2023/07/24 13:35:44;;;;;;;7.78;3.30;;;;;;;;;;4976409;28;20488;-69
2023/07/24 13:38:10;;;;;;;12.73;4.03;;;;;;;;;;4976492;28;20129;-66
2023/07/24 13:40:36;;;;;;;7.93;3.00;;;;;;;;;;4976266;28;20492;-66
2023/07/24 13:43:02;;;;;;;6.18;3.00;;;;;;;;;;4976218;28;20468;-66
2023/07/24 13:45:28;;;;;;;8.57;3.00;;;;;;;;;;4975936;28;20042;-67
2023/07/24 13:47:54;;;;;;;6.63;2.90;;;;;;;;;;4976047;28;20109;-65
2023/07/24 13:50:19;;;;;;;5.55;2.70;;;;;;;;;;4976093;28;20113;-66
2023/07/24 13:52:45;;;;;;;9.60;3.33;;;;;;;;;;4976128;28;20022;-67
2023/07/24 13:55:10;;;;;;;5.72;3.05;;;;;;;;;;4975768;28;20026;-65
2023/07/24 13:57:36;;;;;;;11.18;3.03;;;;;;;;;;4976144;28;20022;-65
2023/07/24 14:00:01;;;;;;;6.22;2.63;;;;;;;;;;4976003;28;20101;-64
2023/07/24 14:02:27;;;;;;;5.70;3.05;;;;;;;;;;4975865;28;20035;-65
2023/07/24 14:04:53;;;;;;;6.28;2.80;;;;;;;;;;4975875;28;20033;-66
2023/07/24 14:07:18;;;;;;;7.13;2.90;;;;;;;;;;4976017;28;20365;-65
2023/07/24 14:09:44;;;;;;;6.13;3.05;;;;;;;;;;4976006;28;20034;-65
2023/07/24 14:12:09;;;;;;;5.90;2.97;;;;;;;;;;4975902;28;20026;-65
2023/07/24 14:14:35;;;;;;;5.18;2.28;;;;;;;;;;4975577;28;20042;-65
2023/07/24 14:17:00;;;;;;;4.85;2.78;;;;;;;;;;4975631;28;20033;-64
2023/07/24 14:19:26;;;;;;;7.57;3.10;;;;;;;;;;4975755;28;20022;-65
2023/07/24 14:21:51;;;;;;;6.00;2.83;;;;;;;;;;4975693;28;20030;-65
2023/07/24 14:24:17;;;;;;;6.38;2.75;;;;;;;;;;4974861;28;20477;-64
2023/07/24 14:26:44;;;;;;;5.13;3.00;;;;;;;;;;4975508;28;20042;-64
2023/07/24 14:29:10;;;;;;;4.70;2.42;;;;;;;;;;4975288;28;20089;-65
2023/07/24 14:31:35;;;;;;;5.00;2.97;;;;;;;;;;4975519;28;20110;-64
2023/07/24 14:34:01;;;;;;;5.60;2.42;;;;;;;;;;4975644;28;20376;-69
2023/07/24 14:36:33;;;;;;;6.78;2.72;;;;;;;;;;4975322;28;20468;-65